Time;durP1;ratioP1;P1;durP2;ratioP2;P2;SDS_P1;SDS_P2;PMS_P1;PMS_P2;Temp;Humidity;BMP_temperature;BMP_pressure;BME280_temperature;BME280_humidity;BME280_pressure;Samples;Min_cycle;Max_cycle;Signal;HPM_P1;HPM_P2
2022/09/23 00:00:56;;;;;;;14.27;10.27;;;10.50;99.90;;;;;;5076475;28;20039;-73
2022/09/23 00:03:22;;;;;;;15.40;10.73;;;10.50;99.90;;;;;;5079640;28;20502;-74
2022/09/23 00:05:57;;;;;;;21.63;11.65;;;10.50;99.90;;;;;;5087290;28;20109;-74
2022/09/23 00:08:23;;;;;;;13.27;10.27;;;10.50;99.90;;;;;;5063741;28;20033;-75
2022/09/23 00:10:49;;;;;;;17.60;10.68;;;10.50;99.90;;;;;;5062044;28;20121;-76
2022/09/23 00:13:15;;;;;;;14.98;11.27;;;10.50;99.90;;;;;;5087132;28;20069;-74
2022/09/23 00:15:40;;;;;;;17.88;10.65;;;10.50;99.90;;;;;;5079399;28;20119;-75
2022/09/23 00:18:06;;;;;;;16.98;11.40;;;10.40;99.90;;;;;;5081722;28;20040;-74
2022/09/23 00:20:34;;;;;;;15.30;11.35;;;10.40;99.90;;;;;;5087498;28;20040;-74
2022/09/23 00:23:00;;;;;;;16.77;11.03;;;10.40;99.90;;;;;;5087186;28;20036;-75
2022/09/23 00:25:28;;;;;;;17.48;11.13;;;10.40;99.90;;;;;;5078055;28;20814;-74
2022/09/23 00:27:55;;;;;;;16.83;11.85;;;10.40;99.90;;;;;;5075353;28;20049;-75
2022/09/23 00:30:22;;;;;;;12.85;10.25;;;10.40;99.90;;;;;;5078683;28;20052;-75
2022/09/23 00:32:48;;;;;;;13.57;11.15;;;10.40;99.90;;;;;;5083489;28;20485;-75
2022/09/23 00:35:14;;;;;;;19.73;11.35;;;10.40;99.90;;;;;;5086104;28;20044;-75
2022/09/23 00:37:40;;;;;;;19.42;12.07;;;10.40;99.90;;;;;;5087992;28;20046;-74
2022/09/23 00:40:07;;;;;;;16.30;10.63;;;10.40;99.90;;;;;;5081025;28;20100;-75
2022/09/23 00:42:33;;;;;;;14.97;10.87;;;10.40;99.90;;;;;;5086095;28;20079;-74
2022/09/23 00:44:59;;;;;;;15.32;11.30;;;10.40;99.90;;;;;;5084359;28;20702;-75
2022/09/23 00:47:50;;;;;;;15.98;12.00;;;10.40;99.90;;;;;;5087557;28;20082;-75
2022/09/23 00:50:20;;;;;;;15.38;12.20;;;10.30;99.90;;;;;;5077821;28;20041;-75
2022/09/23 00:52:48;;;;;;;13.95;11.23;;;10.30;99.90;;;;;;5075082;28;20158;-74
2022/09/23 00:55:20;;;;;;;16.65;12.02;;;10.30;99.90;;;;;;5059221;28;20044;-74
2022/09/23 00:57:46;;;;;;;16.75;12.20;;;10.30;99.90;;;;;;5078624;28;20559;-74
2022/09/23 01:00:13;;;;;;;17.35;12.88;;;10.30;99.90;;;;;;5081309;28;20120;-75
2022/09/23 01:02:39;;;;;;;16.50;10.65;;;10.30;99.90;;;;;;5076425;28;20046;-74
2022/09/23 01:05:06;;;;;;;13.43;10.45;;;10.30;99.90;;;;;;5074730;28;20562;-73
2022/09/23 01:07:33;;;;;;;15.48;11.07;;;10.30;99.90;;;;;;5059056;28;20053;-75
2022/09/23 01:10:00;;;;;;;14.63;11.18;;;10.30;99.90;;;;;;5085687;28;20104;-77
2022/09/23 01:12:35;;;;;;;15.02;10.13;;;10.30;99.90;;;;;;5093440;28;20045;-75
2022/09/23 01:15:27;;;;;;;15.25;10.30;;;10.30;99.90;;;;;;5090816;28;20044;-75
2022/09/23 01:18:16;;;;;;;14.80;10.55;;;10.30;99.90;;;;;;5070725;28;20052;-75
2022/09/23 01:21:06;;;;;;;15.93;10.02;;;10.30;99.90;;;;;;5084630;28;20032;-76
2022/09/23 01:23:56;;;;;;;13.65;10.65;;;10.20;99.90;;;;;;5086697;28;20082;-74
2022/09/23 01:26:55;;;;;;;16.60;11.50;;;10.20;99.90;;;;;;5074551;28;20047;-75
2022/09/23 01:29:41;;;;;;;14.15;10.60;;;10.20;99.90;;;;;;5092821;28;20052;-76
2022/09/23 01:32:41;;;;;;;16.10;10.68;;;10.20;99.90;;;;;;5085361;28;20075;-76
2022/09/23 01:37:54;;;;;;;13.82;9.73;;;10.20;99.90;;;;;;5068475;28;19920;-75
2022/09/23 01:40:36;;;;;;;12.73;9.38;;;10.20;99.90;;;;;;5075453;28;20052;-75
2022/09/23 01:43:12;;;;;;;15.93;9.73;;;10.20;99.90;;;;;;5050839;28;20044;-75
2022/09/23 01:45:46;;;;;;;14.73;9.80;;;10.30;99.90;;;;;;5079609;28;20052;-75
2022/09/23 01:48:29;;;;;;;13.85;8.57;;;10.50;99.90;;;;;;5058987;28;20490;-76
2022/09/23 01:51:04;;;;;;;13.38;9.60;;;10.30;99.90;;;;;;5076202;28;20044;-75
2022/09/23 01:53:42;;;;;;;13.95;9.43;;;10.30;99.90;;;;;;5083074;28;20072;-75
2022/09/23 02:46:43;;;;;;;14.48;10.15;;;10.00;99.90;;;;;;4915589;23;20063;-71
2022/09/23 02:49:12;;;;;;;12.40;9.90;;;10.00;99.90;;;;;;4910917;29;20052;-72
2022/09/23 02:51:39;;;;;;;13.98;10.13;;;10.00;99.90;;;;;;4910592;29;20140;-71
2022/09/23 02:54:09;;;;;;;14.40;9.40;;;9.90;99.90;;;;;;4912437;29;20494;-72
2022/09/23 02:56:36;;;;;;;13.55;9.32;;;9.90;99.90;;;;;;4910733;29;20028;-72
2022/09/23 02:59:02;;;;;;;12.15;9.57;;;9.80;99.90;;;;;;4912221;29;20051;-72
2022/09/23 03:01:56;;;;;;;11.95;9.95;;;9.80;99.90;;;;;;4912246;29;20380;-72
2022/09/23 03:05:02;;;;;;;12.73;9.52;;;9.80;99.90;;;;;;4895920;29;20056;-72
2022/09/23 03:07:55;;;;;;;11.48;9.15;;;9.80;99.90;;;;;;4911022;29;20071;-73
2022/09/23 03:10:51;;;;;;;15.35;10.15;;;9.80;99.90;;;;;;4891948;29;20056;-73
2022/09/23 03:13:54;;;;;;;11.23;9.73;;;9.70;99.90;;;;;;4864553;29;20073;-72
2022/09/23 03:16:37;;;;;;;11.20;9.38;;;9.70;99.90;;;;;;4849496;29;20053;-72
2022/09/23 03:19:27;;;;;;;13.48;9.35;;;9.70;99.90;;;;;;4899277;29;20574;-73
2022/09/23 03:22:38;;;;;;;11.95;9.43;;;9.70;99.90;;;;;;4895448;29;20123;-72
2022/09/23 03:25:11;;;;;;;14.73;9.40;;;9.70;99.90;;;;;;4809929;29;20508;-72
2022/09/23 03:27:41;;;;;;;10.60;9.20;;;9.60;99.90;;;;;;4813091;29;20110;-71
2022/09/23 03:30:07;;;;;;;11.85;9.68;;;9.60;99.90;;;;;;4864410;29;20057;-72
2022/09/23 03:32:33;;;;;;;15.45;8.90;;;9.60;99.90;;;;;;4894472;29;20040;-72
2022/09/23 03:35:00;;;;;;;13.52;9.00;;;9.60;99.90;;;;;;4895006;29;20136;-71
2022/09/23 03:37:32;;;;;;;11.88;10.10;;;9.60;99.90;;;;;;4896667;29;20116;-71
2022/09/23 03:40:10;;;;;;;12.48;9.45;;;9.50;99.90;;;;;;4896231;29;20045;-71
2022/09/23 03:42:37;;;;;;;18.05;10.07;;;9.50;99.90;;;;;;4896132;29;20052;-72
2022/09/23 03:45:08;;;;;;;13.93;9.70;;;9.50;99.90;;;;;;4900972;29;20063;-74
2022/09/23 03:47:35;;;;;;;13.77;9.07;;;9.40;99.90;;;;;;4915826;29;20086;-73
2022/09/23 03:50:00;;;;;;;14.35;10.40;;;9.40;99.90;;;;;;4914718;29;20048;-74
2022/09/23 03:52:26;;;;;;;14.50;9.77;;;9.50;99.90;;;;;;4915146;29;20040;-72
2022/09/23 03:54:52;;;;;;;13.68;9.27;;;9.40;99.90;;;;;;4895535;29;20048;-73
2022/09/23 03:57:20;;;;;;;13.27;10.27;;;9.40;99.90;;;;;;4915294;29;20490;-72
2022/09/23 03:59:47;;;;;;;;;;;9.40;99.90;;;;;;4914467;29;20047;-72
2022/09/23 04:02:14;;;;;;;15.75;10.23;;;9.40;99.90;;;;;;4912830;29;19923;-72
2022/09/23 04:04:40;;;;;;;12.40;10.25;;;9.40;99.90;;;;;;4897698;29;20040;-72
2022/09/23 04:07:05;;;;;;;11.13;9.68;;;9.40;99.90;;;;;;4914623;29;20348;-72
2022/09/23 04:09:32;;;;;;;14.40;10.10;;;9.30;99.90;;;;;;4910969;29;20079;-73
2022/09/23 04:11:58;;;;;;;12.10;9.65;;;9.40;99.90;;;;;;4912746;29;20062;-74
2022/09/23 04:14:24;;;;;;;13.95;10.15;;;9.30;99.90;;;;;;4893839;29;20402;-74
2022/09/23 04:16:49;;;;;;;14.57;9.93;;;9.30;99.90;;;;;;4913820;29;20123;-74
2022/09/23 04:19:15;;;;;;;12.25;10.25;;;9.30;99.90;;;;;;4907538;29;20049;-74
2022/09/23 04:21:42;;;;;;;13.25;9.23;;;9.30;99.90;;;;;;4911994;29;20036;-74
2022/09/23 04:24:09;;;;;;;12.23;10.25;;;9.30;99.90;;;;;;4915502;29;20044;-75
2022/09/23 04:26:35;;;;;;;14.98;10.00;;;9.30;99.90;;;;;;4914483;29;20044;-74
2022/09/23 04:29:03;;;;;;;13.35;10.15;;;9.30;99.90;;;;;;4914107;29;20044;-73
2022/09/23 04:31:29;;;;;;;12.90;10.45;;;9.20;99.90;;;;;;4914683;29;20123;-74
2022/09/23 04:33:55;;;;;;;13.57;10.80;;;9.20;99.90;;;;;;4915608;29;20040;-72
2022/09/23 04:36:20;;;;;;;13.93;10.40;;;9.20;99.90;;;;;;4913485;29;20052;-73
2022/09/23 04:38:48;;;;;;;14.68;10.85;;;9.20;99.90;;;;;;4916427;29;20044;-73
2022/09/23 04:41:14;;;;;;;15.23;9.73;;;9.20;99.90;;;;;;4912901;29;20040;-73
2022/09/23 04:43:41;;;;;;;14.63;10.52;;;9.20;99.90;;;;;;4917735;29;20508;-73
2022/09/23 04:46:08;;;;;;;14.73;11.45;;;9.20;99.90;;;;;;4912375;29;20142;-73
2022/09/23 04:48:36;;;;;;;13.80;10.63;;;9.20;99.90;;;;;;4915194;29;20060;-73
2022/09/23 04:51:03;;;;;;;13.52;10.95;;;9.20;99.90;;;;;;4890791;29;20051;-74
2022/09/23 04:53:29;;;;;;;11.57;10.35;;;9.20;99.90;;;;;;4905750;29;21488;-73
2022/09/23 04:56:01;;;;;;;17.17;12.00;;;9.20;99.90;;;;;;4906773;29;20462;-73
2022/09/23 04:58:27;;;;;;;13.90;10.98;;;9.20;99.90;;;;;;4910587;29;20136;-73
2022/09/23 05:00:53;;;;;;;15.90;11.55;;;9.30;99.90;;;;;;4914688;29;20063;-73
2022/09/23 05:03:19;;;;;;;14.80;11.02;;;9.30;99.90;;;;;;4916585;29;20183;-73
2022/09/23 05:05:45;;;;;;;14.27;10.77;;;9.30;99.90;;;;;;4911226;29;20032;-74
2022/09/23 05:08:10;;;;;;;15.32;11.63;;;9.30;99.90;;;;;;4911978;29;20053;-73
2022/09/23 05:10:36;;;;;;;18.33;11.25;;;9.30;99.90;;;;;;4914349;29;20043;-74
2022/09/23 05:13:02;;;;;;;14.65;11.15;;;9.70;99.90;;;;;;4909902;29;20036;-74
2022/09/23 05:15:28;;;;;;;16.92;11.32;;;9.40;99.90;;;;;;4879391;29;20398;-73
2022/09/23 05:17:57;;;;;;;24.35;11.57;;;9.40;99.90;;;;;;4913509;29;20164;-74
2022/09/23 05:20:23;;;;;;;16.90;11.25;;;9.40;99.90;;;;;;4913745;29;20044;-74
2022/09/23 05:22:49;;;;;;;18.58;11.90;;;9.40;99.90;;;;;;4914058;29;20138;-72
2022/09/23 05:25:14;;;;;;;16.23;10.90;;;9.40;99.90;;;;;;4895071;29;20483;-73
2022/09/23 05:27:41;;;;;;;14.45;11.57;;;9.40;99.90;;;;;;4908580;29;20067;-74
2022/09/23 05:30:07;;;;;;;15.95;12.00;;;9.50;99.90;;;;;;4911481;29;20479;-74
2022/09/23 05:32:33;;;;;;;15.00;12.50;;;9.40;99.90;;;;;;4912899;29;20059;-72
2022/09/23 05:34:58;;;;;;;17.90;12.02;;;9.40;99.90;;;;;;4913291;29;20052;-72
2022/09/23 05:37:24;;;;;;;15.70;11.93;;;9.50;99.90;;;;;;4912728;29;20639;-72
2022/09/23 05:39:50;;;;;;;16.08;12.18;;;9.50;99.90;;;;;;4911335;29;20048;-72
2022/09/23 05:42:20;;;;;;;19.50;13.07;;;9.50;99.90;;;;;;4905180;29;20378;-73
2022/09/23 05:44:46;;;;;;;20.08;12.05;;;9.50;99.90;;;;;;4911527;29;20086;-73
2022/09/23 05:47:12;;;;;;;18.75;13.50;;;9.50;99.90;;;;;;4902492;29;20040;-73
2022/09/23 05:49:37;;;;;;;16.15;13.15;;;9.50;99.90;;;;;;4907586;29;20513;-72
2022/09/23 05:52:06;;;;;;;16.23;13.10;;;9.50;99.90;;;;;;4911856;29;20048;-73
2022/09/23 05:54:32;;;;;;;20.13;12.63;;;9.50;99.90;;;;;;4914063;29;20051;-73
2022/09/23 05:56:58;;;;;;;18.38;13.40;;;9.60;99.90;;;;;;4893099;29;20048;-73
2022/09/23 05:59:23;;;;;;;18.80;13.27;;;9.60;99.90;;;;;;4906431;29;20104;-73
2022/09/23 06:01:49;;;;;;;18.67;13.32;;;9.70;99.90;;;;;;4905958;29;20040;-73
2022/09/23 06:04:15;;;;;;;18.00;13.25;;;9.70;99.90;;;;;;4903996;29;20056;-72
2022/09/23 06:06:41;;;;;;;19.08;13.23;;;9.70;99.90;;;;;;4869347;29;20047;-72
2022/09/23 06:09:10;;;;;;;14.80;12.35;;;9.80;99.90;;;;;;4899235;29;20052;-72
2022/09/23 06:11:36;;;;;;;16.55;12.93;;;9.90;99.90;;;;;;4874598;29;20048;-72
2022/09/23 06:14:02;;;;;;;17.67;13.77;;;9.90;99.90;;;;;;4893036;29;20060;-72
2022/09/23 06:16:31;;;;;;;16.98;12.90;;;9.90;99.90;;;;;;4909797;29;20051;-71
2022/09/23 06:18:59;;;;;;;14.98;12.10;;;10.10;99.90;;;;;;4877630;29;20068;-72
2022/09/23 06:21:24;;;;;;;17.77;12.60;;;10.00;99.90;;;;;;4898129;29;20059;-71
2022/09/23 06:23:50;;;;;;;18.92;12.73;;;10.00;99.90;;;;;;4878971;29;20400;-71
2022/09/23 06:26:16;;;;;;;21.55;12.38;;;10.10;99.90;;;;;;4886312;29;20095;-71
2022/09/23 06:28:43;;;;;;;17.85;13.07;;;10.10;99.90;;;;;;4863821;29;20048;-72
2022/09/23 06:31:14;;;;;;;19.23;13.63;;;10.20;99.90;;;;;;4905881;29;20094;-71
2022/09/23 06:33:44;;;;;;;20.08;12.95;;;10.20;99.90;;;;;;4907926;29;20499;-71
2022/09/23 06:36:11;;;;;;;18.52;13.25;;;10.20;99.90;;;;;;4892194;29;20123;-72
2022/09/23 06:38:43;;;;;;;18.88;12.65;;;10.30;99.90;;;;;;4880612;29;20131;-71
2022/09/23 06:41:10;;;;;;;15.25;12.40;;;10.40;99.90;;;;;;4885414;29;21850;-72
2022/09/23 06:43:35;;;;;;;17.58;13.15;;;10.40;99.90;;;;;;4905023;29;20048;-73
2022/09/23 06:46:03;;;;;;;17.08;12.75;;;10.50;99.90;;;;;;4879538;29;20117;-72
2022/09/23 06:48:30;;;;;;;17.63;13.13;;;10.50;99.90;;;;;;4890497;29;20557;-72
2022/09/23 06:51:01;;;;;;;16.60;12.85;;;10.60;99.90;;;;;;4889261;29;20347;-73
2022/09/23 06:53:30;;;;;;;15.85;12.23;;;10.70;99.90;;;;;;4890402;29;20048;-72
2022/09/23 06:56:04;;;;;;;14.32;11.75;;;10.80;99.90;;;;;;4873253;29;20044;-72
2022/09/23 06:58:32;;;;;;;16.70;12.35;;;10.90;99.90;;;;;;4886436;29;20048;-72
2022/09/23 07:01:09;;;;;;;17.48;13.65;;;11.00;99.90;;;;;;4888625;29;20033;-72
2022/09/23 07:03:35;;;;;;;20.98;12.40;;;11.10;99.90;;;;;;4877942;29;20096;-72
2022/09/23 07:06:02;;;;;;;17.40;12.82;;;11.20;99.90;;;;;;4877697;29;20037;-72
2022/09/23 07:08:29;;;;;;;14.50;11.88;;;11.30;99.90;;;;;;4897203;29;20521;-72
2022/09/23 07:10:56;;;;;;;17.33;12.02;;;11.30;99.90;;;;;;4892421;29;20052;-71
2022/09/23 07:13:23;;;;;;;17.23;12.00;;;11.30;99.90;;;;;;4892336;29;20045;-71
2022/09/23 07:15:57;;;;;;;14.35;11.43;;;11.30;99.90;;;;;;4894445;29;20473;-72
2022/09/23 07:18:24;;;;;;;14.07;12.10;;;11.40;99.90;;;;;;4896754;29;20055;-72
2022/09/23 07:20:50;;;;;;;16.43;12.53;;;11.30;99.90;;;;;;4894336;29;20135;-71
2022/09/23 07:23:16;;;;;;;15.20;12.50;;;11.40;99.90;;;;;;4897559;29;20045;-70
2022/09/23 07:25:43;;;;;;;14.13;12.18;;;11.40;99.90;;;;;;4873338;29;20048;-72
2022/09/23 07:28:09;;;;;;;15.70;12.68;;;11.40;99.90;;;;;;4895721;29;20390;-71
2022/09/23 07:30:39;;;;;;;14.27;12.10;;;11.40;99.90;;;;;;4895916;29;20044;-72
2022/09/23 07:33:05;;;;;;;15.68;11.60;;;11.40;99.90;;;;;;4891397;29;20048;-72
2022/09/23 07:35:32;;;;;;;15.30;11.88;;;11.50;99.90;;;;;;4882668;29;20651;-72
2022/09/23 07:37:58;;;;;;;15.73;12.05;;;11.50;99.90;;;;;;4890251;29;20045;-73
2022/09/23 07:40:24;;;;;;;15.13;12.23;;;11.50;99.90;;;;;;4904368;29;20049;-72
2022/09/23 07:42:49;;;;;;;18.65;11.90;;;11.60;99.90;;;;;;4902171;29;20048;-72
2022/09/23 07:45:15;;;;;;;19.35;11.93;;;11.70;99.90;;;;;;4880230;29;20052;-71
2022/09/23 07:47:41;;;;;;;16.33;12.38;;;11.70;99.90;;;;;;4912921;29;20086;-72
2022/09/23 07:50:11;;;;;;;13.88;12.13;;;11.90;99.90;;;;;;4913677;29;20079;-72
2022/09/23 07:52:38;;;;;;;17.35;12.60;;;11.90;99.90;;;;;;4911121;29;20052;-75
2022/09/23 07:55:04;;;;;;;17.98;11.75;;;11.90;99.90;;;;;;4915304;29;20086;-75
2022/09/23 07:57:31;;;;;;;17.35;12.50;;;12.00;99.90;;;;;;4888674;29;20399;-74
2022/09/23 07:59:56;;;;;;;20.77;13.02;;;12.10;99.90;;;;;;4915345;29;20048;-75
2022/09/23 08:02:22;;;;;;;14.95;11.30;;;12.30;99.90;;;;;;4896143;29;20380;-76
2022/09/23 08:04:48;;;;;;;16.05;11.75;;;12.40;99.90;;;;;;4897111;29;20067;-73
2022/09/23 08:07:15;;;;;;;15.45;11.18;;;12.40;99.90;;;;;;4914892;29;20100;-73
2022/09/23 08:09:42;;;;;;;15.98;11.60;;;12.50;99.90;;;;;;4912756;29;20047;-73
2022/09/23 08:12:09;;;;;;;14.25;11.73;;;12.50;99.90;;;;;;4902725;29;20334;-74
2022/09/23 08:14:35;;;;;;;15.15;11.43;;;12.60;99.90;;;;;;4911742;29;20083;-73
2022/09/23 08:17:01;;;;;;;17.10;11.50;;;12.60;99.90;;;;;;4901204;29;20506;-73
2022/09/23 08:19:26;;;;;;;20.20;12.02;;;12.70;99.90;;;;;;4911089;29;20510;-74
2022/09/23 08:21:53;;;;;;;15.50;10.88;;;12.80;99.90;;;;;;4917027;29;20127;-72
2022/09/23 08:24:20;;;;;;;17.38;11.35;;;12.80;99.90;;;;;;4910523;29;20040;-78
2022/09/23 08:26:47;;;;;;;13.98;10.02;;;12.90;99.90;;;;;;4913457;29;20091;-74
2022/09/23 08:29:14;;;;;;;14.00;10.65;;;12.90;99.90;;;;;;4917501;29;20122;-72
2022/09/23 08:31:41;;;;;;;19.45;10.80;;;13.00;99.90;;;;;;4914753;29;20076;-72
2022/09/23 08:34:07;;;;;;;16.00;10.57;;;13.10;99.90;;;;;;4909598;29;20047;-72
2022/09/23 08:36:33;;;;;;;15.43;10.80;;;13.10;99.90;;;;;;4907947;29;20040;-74
2022/09/23 08:38:59;;;;;;;13.52;10.18;;;13.20;99.90;;;;;;4895529;29;20036;-72
2022/09/23 08:41:37;;;;;;;20.13;10.82;;;13.30;99.90;;;;;;4915954;29;20545;-75
2022/09/23 08:44:07;;;;;;;;;;;13.40;99.90;;;;;;4908186;29;20167;-73
2022/09/23 08:46:42;;;;;;;17.35;10.85;;;13.50;99.90;;;;;;4912521;29;19966;-74
2022/09/23 08:49:12;;;;;;;17.45;10.40;;;13.50;99.90;;;;;;4912489;29;20035;-75
2022/09/23 08:51:45;;;;;;;14.52;10.45;;;13.70;99.90;;;;;;4900420;29;20048;-73
2022/09/23 08:54:12;;;;;;;13.65;10.50;;;13.80;99.90;;;;;;4907146;29;20036;-73
2022/09/23 08:56:38;;;;;;;16.92;10.90;;;14.00;99.90;;;;;;4914004;29;20040;-72
2022/09/23 08:59:16;;;;;;;13.75;9.57;;;14.10;99.90;;;;;;4914083;29;20090;-72
2022/09/23 09:01:44;;;;;;;15.70;9.98;;;14.20;99.90;;;;;;4914107;29;20048;-74
2022/09/23 09:04:19;;;;;;;13.38;10.05;;;14.20;99.90;;;;;;4917884;29;20639;-74
2022/09/23 09:07:01;;;;;;;13.63;9.75;;;14.30;99.90;;;;;;4907432;29;20044;-75
2022/09/23 09:09:38;;;;;;;15.75;9.27;;;14.20;99.90;;;;;;4911529;29;20055;-71
2022/09/23 09:12:17;;;;;;;16.20;9.50;;;14.40;99.90;;;;;;4914626;29;20054;-74
2022/09/23 09:14:48;;;;;;;10.70;8.70;;;14.40;99.90;;;;;;4912181;29;20044;-74
2022/09/23 09:17:23;;;;;;;14.13;9.50;;;14.40;99.90;;;;;;4912483;29;20052;-75
2022/09/23 09:20:01;;;;;;;11.57;9.05;;;14.50;99.90;;;;;;4912173;29;20068;-72
2022/09/23 09:22:56;;;;;;;13.63;9.35;;;14.50;99.90;;;;;;4912261;29;20040;-71
2022/09/23 09:25:40;;;;;;;15.43;9.48;;;14.60;99.90;;;;;;4889290;29;20059;-77
2022/09/23 09:28:32;;;;;;;15.90;9.18;;;14.60;99.90;;;;;;4909396;29;20056;-76
2022/09/23 09:31:20;;;;;;;18.00;9.35;;;14.60;99.90;;;;;;4913463;29;20075;-71
2022/09/23 09:33:56;;;;;;;12.18;8.93;;;14.70;99.90;;;;;;4913360;29;20104;-74
2022/09/23 09:36:40;;;;;;;13.50;8.73;;;14.70;99.90;;;;;;4909829;29;20044;-75
2022/09/23 09:39:12;;;;;;;12.98;8.85;;;14.70;99.90;;;;;;4911149;29;20123;-73
2022/09/23 09:41:43;;;;;;;13.10;9.20;;;14.70;99.90;;;;;;4894819;29;20052;-74
2022/09/23 09:44:23;;;;;;;12.45;9.07;;;14.80;99.90;;;;;;4907961;29;20060;-74
2022/09/23 09:47:07;;;;;;;12.85;8.77;;;14.80;99.90;;;;;;4912513;29;20450;-74
2022/09/23 09:50:10;;;;;;;11.48;8.38;;;14.90;99.90;;;;;;4911037;29;20140;-73
2022/09/23 09:52:36;;;;;;;13.15;8.52;;;14.90;99.90;;;;;;4905180;29;22168;-73
2022/09/23 09:55:11;;;;;;;16.95;8.60;;;15.00;99.90;;;;;;4907862;29;20052;-73
2022/09/23 09:57:44;;;;;;;13.45;9.13;;;15.00;99.90;;;;;;4909315;29;20490;-75
2022/09/23 10:00:36;;;;;;;13.50;8.73;;;15.10;99.90;;;;;;4904241;29;20047;-74
2022/09/23 10:03:13;;;;;;;12.55;8.10;;;15.10;99.90;;;;;;4906910;29;20139;-75
2022/09/23 10:05:47;;;;;;;14.73;8.90;;;15.20;99.90;;;;;;4911046;29;20040;-73
2022/09/23 10:08:28;;;;;;;11.52;8.73;;;15.20;99.90;;;;;;4876442;29;20127;-74
2022/09/23 10:11:05;;;;;;;13.65;8.10;;;15.20;99.90;;;;;;4905925;29;20518;-74
2022/09/23 10:13:31;;;;;;;12.80;8.52;;;15.20;99.90;;;;;;4909999;29;20640;-70
2022/09/23 10:16:00;;;;;;;11.02;7.90;;;15.20;99.90;;;;;;4881577;29;20333;-72
2022/09/23 10:18:30;;;;;;;10.25;8.30;;;15.20;99.90;;;;;;4893622;29;20601;-72
2022/09/23 10:21:23;;;;;;;12.18;8.15;;;15.20;99.90;;;;;;4904402;29;20131;-72
2022/09/23 10:23:51;;;;;;;10.90;8.60;;;15.20;99.90;;;;;;4901939;29;20086;-71
2022/09/23 10:26:26;;;;;;;11.77;8.43;;;15.30;99.90;;;;;;4906319;29;20072;-71
2022/09/23 10:28:58;;;;;;;16.17;9.10;;;15.40;99.90;;;;;;4908550;29;20036;-70
2022/09/23 10:31:32;;;;;;;13.55;8.20;;;15.40;99.90;;;;;;4906483;29;20044;-71
2022/09/23 10:34:19;;;;;;;14.00;8.52;;;15.40;99.90;;;;;;4911641;29;20040;-70
2022/09/23 10:37:13;;;;;;;13.35;8.20;;;15.40;99.90;;;;;;4899598;29;20041;-71
2022/09/23 10:48:51;;;;;;;12.93;8.60;;;15.50;99.90;;;;;;4897314;29;20056;-71
2022/09/23 10:51:39;;;;;;;9.48;7.97;;;15.60;99.90;;;;;;4910854;29;20036;-70
2022/09/23 10:54:23;;;;;;;12.27;8.45;;;15.60;99.90;;;;;;4906139;29;20086;-71
2022/09/23 10:56:55;;;;;;;10.30;7.78;;;15.60;99.90;;;;;;4910032;29;20039;-71
2022/09/23 10:59:40;;;;;;;14.43;8.70;;;15.70;99.90;;;;;;4913406;29;20402;-71
2022/09/23 11:02:15;;;;;;;13.55;8.65;;;15.70;99.90;;;;;;4913488;29;20040;-71
2022/09/23 11:05:05;;;;;;;14.75;10.00;;;15.80;99.90;;;;;;4913568;29;20044;-70
2022/09/23 11:07:59;;;;;;;10.45;8.20;;;15.80;99.90;;;;;;4917346;29;20044;-71
2022/09/23 11:10:50;;;;;;;14.23;8.00;;;15.90;99.90;;;;;;4914426;29;20131;-71
2022/09/23 11:16:43;;;;;;;14.23;8.68;;;16.00;99.90;;;;;;4915632;29;20486;-72
2022/09/23 11:19:31;;;;;;;12.10;8.60;;;16.10;99.90;;;;;;4918557;29;20051;-72
2022/09/23 11:22:31;;;;;;;11.30;8.15;;;16.20;99.90;;;;;;4913061;29;20048;-72
2022/09/23 11:25:13;;;;;;;12.95;9.23;;;16.30;99.90;;;;;;4910066;29;20056;-72
2022/09/23 11:28:16;;;;;;;11.30;8.82;;;16.30;99.90;;;;;;4918154;29;20131;-72
2022/09/23 11:31:13;;;;;;;13.50;8.93;;;16.30;99.90;;;;;;4912074;29;20398;-71
2022/09/23 11:33:56;;;;;;;11.57;8.82;;;16.30;99.90;;;;;;4898988;29;20051;-71
2022/09/23 11:36:31;;;;;;;13.80;9.20;;;16.20;99.90;;;;;;4913598;29;20195;-71
2022/09/23 11:39:01;;;;;;;16.92;9.13;;;16.10;99.90;;;;;;4907382;29;20056;-72
2022/09/23 11:41:31;;;;;;;20.65;9.65;;;16.10;99.90;;;;;;4911233;29;20090;-70
2022/09/23 11:44:26;;;;;;;15.00;9.40;;;16.10;99.90;;;;;;4917585;29;20040;-70
2022/09/23 11:47:09;;;;;;;13.52;8.93;;;16.10;99.90;;;;;;4887977;29;20410;-71
2022/09/23 11:49:46;;;;;;;13.38;9.30;;;16.10;99.90;;;;;;4897305;29;20543;-71
2022/09/23 11:52:20;;;;;;;13.68;9.38;;;16.10;99.90;;;;;;4898427;29;20041;-71
2022/09/23 11:54:53;;;;;;;12.82;9.55;;;16.10;99.90;;;;;;4897371;29;20044;-70
2022/09/23 11:57:55;;;;;;;12.27;9.13;;;16.00;99.90;;;;;;4897047;29;20045;-70
2022/09/23 12:00:30;;;;;;;16.20;10.68;;;16.10;99.90;;;;;;4893544;29;20048;-71
2022/09/23 12:03:12;;;;;;;16.38;8.98;;;16.10;99.90;;;;;;4896820;29;20045;-71
2022/09/23 12:05:55;;;;;;;15.80;9.85;;;16.10;99.90;;;;;;4897663;29;20166;-71
2022/09/23 12:08:28;;;;;;;20.45;10.05;;;16.10;99.90;;;;;;4896448;29;20570;-71
2022/09/23 12:11:18;;;;;;;15.05;10.07;;;16.10;99.90;;;;;;4897338;29;20080;-72
2022/09/23 12:13:50;;;;;;;12.68;9.70;;;16.10;99.90;;;;;;4881126;29;20045;-69
2022/09/23 12:16:41;;;;;;;16.02;10.25;;;16.10;99.90;;;;;;4890222;29;20084;-70
2022/09/23 12:19:37;;;;;;;16.23;10.18;;;16.10;99.90;;;;;;4902067;29;20096;-69
2022/09/23 12:22:25;;;;;;;16.52;10.25;;;16.10;99.90;;;;;;4894719;29;20052;-70
2022/09/23 12:25:17;;;;;;;17.13;9.73;;;16.10;99.90;;;;;;4892604;29;20044;-69
2022/09/23 12:27:47;;;;;;;16.10;11.57;;;16.20;99.90;;;;;;4901217;29;20060;-70
2022/09/23 12:30:19;;;;;;;15.48;9.52;;;16.20;99.90;;;;;;4896661;29;20060;-69
2022/09/23 12:32:45;;;;;;;14.75;9.50;;;16.20;99.90;;;;;;4897153;29;20045;-71
2022/09/23 12:35:31;;;;;;;15.07;9.77;;;16.30;99.90;;;;;;4897194;29;20075;-70
2022/09/23 12:37:59;;;;;;;13.82;10.30;;;16.30;99.90;;;;;;4893196;29;21536;-70
2022/09/23 12:40:37;;;;;;;13.55;9.43;;;16.40;99.90;;;;;;4882505;29;20053;-71
2022/09/23 12:43:03;;;;;;;15.80;10.77;;;16.40;99.90;;;;;;4893622;29;20052;-71
2022/09/23 12:45:33;;;;;;;10.95;9.65;;;16.40;99.90;;;;;;4871079;29;20056;-71
2022/09/23 12:48:04;;;;;;;13.63;9.73;;;16.50;99.90;;;;;;4910174;29;20107;-71
2022/09/23 12:50:47;;;;;;;16.08;9.45;;;16.50;99.90;;;;;;4915073;29;20040;-71
2022/09/23 12:53:32;;;;;;;13.55;8.80;;;16.60;99.90;;;;;;4910768;29;20114;-71
2022/09/23 12:55:59;;;;;;;12.70;9.38;;;16.60;99.90;;;;;;4898022;29;20150;-71
2022/09/23 12:58:43;;;;;;;14.27;8.88;;;16.70;99.90;;;;;;4895810;29;20482;-71
2022/09/23 13:01:19;;;;;;;14.45;8.95;;;16.70;99.90;;;;;;4894917;29;20056;-71
2022/09/23 13:07:00;;;;;;;15.75;10.05;;;16.70;99.90;;;;;;4914822;29;20498;-71
2022/09/23 13:09:29;;;;;;;15.20;10.32;;;16.70;99.90;;;;;;4899242;29;20100;-72
2022/09/23 13:12:02;;;;;;;18.70;10.20;;;16.80;99.90;;;;;;4910595;29;20040;-72
2022/09/23 13:14:31;;;;;;;16.63;10.57;;;16.80;99.90;;;;;;4904470;29;20086;-71
2022/09/23 13:16:57;;;;;;;15.57;10.77;;;16.70;99.90;;;;;;4912455;29;20099;-72
2022/09/23 13:19:26;;;;;;;15.38;9.95;;;16.70;99.90;;;;;;4904883;29;20155;-72
2022/09/23 13:22:07;;;;;;;13.88;10.10;;;16.70;99.90;;;;;;4910568;29;20047;-72
2022/09/23 13:24:44;;;;;;;14.70;9.45;;;16.70;99.90;;;;;;4911174;29;20142;-71
2022/09/23 13:27:23;;;;;;;17.48;10.73;;;16.60;99.90;;;;;;4912320;29;20052;-72
2022/09/23 13:29:56;;;;;;;17.08;10.30;;;16.60;99.90;;;;;;4915040;29;20059;-72
2022/09/23 13:32:30;;;;;;;18.27;11.30;;;16.50;99.90;;;;;;4885118;29;20134;-71
2022/09/23 13:35:11;;;;;;;17.58;11.73;;;16.50;99.90;;;;;;4910769;29;20063;-72
2022/09/23 13:37:41;;;;;;;18.45;10.85;;;16.50;99.90;;;;;;4905531;29;20171;-71
2022/09/23 13:40:22;;;;;;;16.33;11.77;;;16.50;99.90;;;;;;4912085;29;20052;-71
2022/09/23 13:43:38;;;;;;;17.58;10.55;;;16.40;99.90;;;;;;4912942;29;20119;-70
2022/09/23 13:46:12;;;;;;;16.23;10.50;;;16.40;99.90;;;;;;4899001;29;20055;-71
2022/09/23 13:48:39;;;;;;;13.25;10.48;;;16.40;99.90;;;;;;4893049;29;20162;-70
2022/09/23 13:51:09;;;;;;;13.88;10.93;;;16.40;99.90;;;;;;4901470;29;20048;-71
2022/09/23 13:53:35;;;;;;;14.50;11.10;;;16.30;99.90;;;;;;4907106;29;20067;-72
2022/09/23 13:56:02;;;;;;;17.42;11.65;;;16.20;99.90;;;;;;4907333;29;20047;-72
2022/09/23 13:58:30;;;;;;;17.30;11.43;;;16.20;99.90;;;;;;4910585;29;20050;-71
2022/09/23 14:00:55;;;;;;;18.23;12.23;;;16.10;99.90;;;;;;4907895;29;20118;-71
2022/09/23 14:03:31;;;;;;;16.27;12.50;;;16.10;99.90;;;;;;4913413;29;20279;-71
2022/09/23 14:06:00;;;;;;;15.75;12.52;;;16.00;99.90;;;;;;4887652;29;20565;-71
2022/09/23 14:08:28;;;;;;;19.65;12.98;;;15.90;99.90;;;;;;4910180;29;20048;-71
2022/09/23 14:10:55;;;;;;;18.23;13.52;;;15.90;99.90;;;;;;4907611;29;20055;-71